createdAt,value
2018-08-19T00:02:23.133Z,4.22
2018-08-19T00:05:08.944Z,4.62
2018-08-19T00:07:38.050Z,4.57
2018-08-19T00:10:07.495Z,4.97
2018-08-19T00:12:44.478Z,4.00
2018-08-19T00:15:13.974Z,4.67
2018-08-19T00:17:43.149Z,5.27
2018-08-19T00:20:13.483Z,5.57
2018-08-19T00:22:42.625Z,5.07
2018-08-19T00:25:22.097Z,5.10
2018-08-19T00:27:51.242Z,5.47
2018-08-19T00:30:20.398Z,5.03
2018-08-19T00:32:49.615Z,4.77
2018-08-19T00:35:18.766Z,5.17
2018-08-19T00:37:47.906Z,5.40
2018-08-19T00:40:17.074Z,4.97
2018-08-19T00:42:46.214Z,4.80
2018-08-19T00:45:16.938Z,4.60
2018-08-19T00:47:46.446Z,5.10
2018-08-19T00:50:15.595Z,5.27
2018-08-19T00:52:44.731Z,5.97
2018-08-19T00:55:13.878Z,5.07
2018-08-19T00:57:44.874Z,5.27
2018-08-19T01:00:14.031Z,4.67
2018-08-19T01:02:43.170Z,5.30
2018-08-19T01:05:12.322Z,5.03
2018-08-19T01:07:41.577Z,5.30
2018-08-19T01:10:10.822Z,5.10
2018-08-19T01:12:39.970Z,5.70
2018-08-19T01:15:13.939Z,5.43
2018-08-19T01:17:44.202Z,5.57
2018-08-19T01:20:22.619Z,5.58
2018-08-19T01:22:51.837Z,5.85
2018-08-19T01:25:20.934Z,5.60
2018-08-19T01:27:50.719Z,6.43
2018-08-19T01:30:22.470Z,5.40
2018-08-19T01:32:51.667Z,5.67
2018-08-19T01:35:33.654Z,5.80
2018-08-19T01:38:02.807Z,5.83
2018-08-19T01:40:31.955Z,5.97
2018-08-19T01:43:01.098Z,5.50
2018-08-19T01:45:30.255Z,5.70
2018-08-19T01:47:59.388Z,5.60
2018-08-19T01:50:29.210Z,6.08
2018-08-19T01:52:59.329Z,6.35
2018-08-19T01:55:31.513Z,5.80
2018-08-19T01:58:00.654Z,5.47
2018-08-19T02:00:29.798Z,5.47
2018-08-19T02:03:03.678Z,5.45
2018-08-19T02:05:32.854Z,5.17
2018-08-19T02:08:03.171Z,5.47
2018-08-19T02:10:34.030Z,5.70
2018-08-19T02:13:03.518Z,6.03
2018-08-19T02:15:33.246Z,5.70
2018-08-19T02:18:03.655Z,5.20
2018-08-19T02:20:35.442Z,5.90
2018-08-19T02:23:06.711Z,5.70
2018-08-19T02:25:48.108Z,6.20
2018-08-19T02:28:22.154Z,5.17
2018-08-19T02:31:02.706Z,6.47
2018-08-19T02:33:35.400Z,5.03
2018-08-19T02:36:07.426Z,4.93
2018-08-19T02:38:38.614Z,5.42
2018-08-19T02:41:07.794Z,5.53
2018-08-19T02:43:49.827Z,6.17
2018-08-19T02:46:18.970Z,5.35
2018-08-19T02:48:50.265Z,5.97
2018-08-19T02:51:20.473Z,6.10
2018-08-19T02:53:50.727Z,5.77
2018-08-19T02:56:20.522Z,6.27
2018-08-19T02:58:49.713Z,6.20
2018-08-19T03:01:19.010Z,6.03
2018-08-19T03:03:48.154Z,6.37
2018-08-19T03:06:17.318Z,6.33
2018-08-19T03:08:51.814Z,5.97
2018-08-19T03:11:22.150Z,6.00
2018-08-19T03:13:51.302Z,5.37
2018-08-19T03:16:20.446Z,5.57
2018-08-19T03:18:51.909Z,5.70
2018-08-19T03:21:22.118Z,6.90
2018-08-19T03:23:52.738Z,5.80
2018-08-19T03:26:21.882Z,5.57
2018-08-19T03:28:51.009Z,5.77
2018-08-19T03:31:20.154Z,6.10
2018-08-19T03:33:49.295Z,5.50
2018-08-19T03:36:18.442Z,6.10
2018-08-19T03:38:47.583Z,6.03
2018-08-19T03:41:16.726Z,5.70
2018-08-19T03:43:58.942Z,5.77
2018-08-19T03:46:29.570Z,6.20
2018-08-19T03:48:58.713Z,6.20
2018-08-19T03:51:27.858Z,6.10
2018-08-19T03:53:56.983Z,5.87
2018-08-19T03:56:27.473Z,6.60
2018-08-19T03:59:00.557Z,6.30
2018-08-19T04:01:42.749Z,6.40
2018-08-19T04:04:14.314Z,6.03
2018-08-19T04:06:43.805Z,5.97
2018-08-19T04:09:13.014Z,5.95
2018-08-19T04:11:42.173Z,5.62
2018-08-19T04:14:28.214Z,6.08
2018-08-19T04:17:00.013Z,5.70
2018-08-19T04:19:29.617Z,6.07
2018-08-19T04:22:02.594Z,5.40
2018-08-19T04:24:32.021Z,5.67
2018-08-19T04:27:06.694Z,5.97
2018-08-19T04:29:36.298Z,6.33
2018-08-19T04:32:06.522Z,6.20
2018-08-19T04:34:35.655Z,6.00
2018-08-19T04:37:04.814Z,5.93
2018-08-19T04:39:33.978Z,5.80
2018-08-19T04:42:03.219Z,6.30
2018-08-19T04:44:32.358Z,5.33
2018-08-19T04:47:14.418Z,6.20
2018-08-19T04:49:43.614Z,6.47
2018-08-19T04:52:14.738Z,5.70
2018-08-19T04:54:43.877Z,6.27
2018-08-19T04:57:13.302Z,5.95
2018-08-19T04:59:43.315Z,6.30
2018-08-19T05:02:13.629Z,5.47
2018-08-19T05:04:42.731Z,5.90
2018-08-19T05:07:11.991Z,6.50
2018-08-19T05:09:41.163Z,6.10
2018-08-19T05:12:10.315Z,6.20
2018-08-19T05:14:39.463Z,5.70
2018-08-19T05:17:08.606Z,5.77
2018-08-19T05:19:37.763Z,6.00
2018-08-19T05:22:10.988Z,6.00
2018-08-19T05:24:40.378Z,5.83
2018-08-19T05:27:10.074Z,5.70
2018-08-19T05:29:39.382Z,5.87
2018-08-19T05:32:14.140Z,6.00
2018-08-19T05:34:44.182Z,5.17
2018-08-19T05:37:14.198Z,5.90
2018-08-19T05:39:51.198Z,5.60
2018-08-19T05:42:20.314Z,5.60
2018-08-19T05:44:49.448Z,5.40
2018-08-19T05:47:18.840Z,5.47
2018-08-19T05:49:48.730Z,5.63
2018-08-19T05:52:19.170Z,5.63
2018-08-19T05:54:54.810Z,5.40
2018-08-19T05:57:23.962Z,4.90
2018-08-19T05:59:54.338Z,5.78
2018-08-19T06:02:32.855Z,4.63
2018-08-19T06:05:03.369Z,5.73
2018-08-19T06:07:32.649Z,4.97
2018-08-19T06:10:01.870Z,5.10
2018-08-19T06:12:31.038Z,5.17
2018-08-19T06:15:01.399Z,5.47
2018-08-19T06:17:30.566Z,5.37
2018-08-19T06:19:59.722Z,5.87
2018-08-19T06:22:38.941Z,5.43
2018-08-19T06:25:08.226Z,5.70
2018-08-19T06:27:41.456Z,5.65
2018-08-19T06:30:10.918Z,5.67
2018-08-19T06:32:40.090Z,4.73
2018-08-19T06:35:09.375Z,4.20
2018-08-19T06:37:38.527Z,4.30
2018-08-19T06:40:10.162Z,4.57
2018-08-19T06:42:39.298Z,4.33
2018-08-19T06:45:09.615Z,5.15
2018-08-19T06:47:38.823Z,4.67
2018-08-19T06:50:19.543Z,4.47
2018-08-19T06:52:48.774Z,4.67
2018-08-19T06:55:18.366Z,4.50
2018-08-19T06:57:47.524Z,3.60
2018-08-19T07:00:20.773Z,3.40
2018-08-19T07:02:49.939Z,3.50
2018-08-19T07:05:19.078Z,3.27
2018-08-19T07:07:48.221Z,3.53
2018-08-19T07:10:26.458Z,3.97
2018-08-19T07:13:00.468Z,4.00
2018-08-19T07:15:29.652Z,3.27
2018-08-19T07:17:58.814Z,3.20
2018-08-19T07:20:27.947Z,3.20
2018-08-19T07:22:57.094Z,3.70
2018-08-19T07:25:26.237Z,3.43
2018-08-19T07:27:55.387Z,3.53
2018-08-19T07:30:24.521Z,3.57
2018-08-19T07:32:53.658Z,3.50
2018-08-19T07:35:22.806Z,4.20
2018-08-19T07:37:51.951Z,3.23
2018-08-19T07:40:21.087Z,3.40
2018-08-19T07:42:50.230Z,3.33
2018-08-19T07:45:19.365Z,3.27
2018-08-19T07:47:48.506Z,3.67
2018-08-19T07:50:17.674Z,3.60
2018-08-19T07:52:46.814Z,4.00
2018-08-19T07:55:15.953Z,3.55
2018-08-19T07:57:45.103Z,3.67
2018-08-19T08:00:14.260Z,3.30
2018-08-19T08:02:43.422Z,3.40
2018-08-19T08:05:12.562Z,3.10
2018-08-19T08:07:47.054Z,3.43
2018-08-19T08:10:16.244Z,3.37
2018-08-19T08:12:46.248Z,3.90
2018-08-19T08:15:15.382Z,3.23
2018-08-19T08:17:44.531Z,3.02
2018-08-19T08:20:13.679Z,3.30
2018-08-19T08:22:42.814Z,3.23
2018-08-19T08:25:12.361Z,2.83
2018-08-19T08:27:42.741Z,3.08
2018-08-19T08:30:12.879Z,2.93
2018-08-19T08:32:45.664Z,2.85
2018-08-19T08:35:14.806Z,2.97
2018-08-19T08:37:43.946Z,3.00
2018-08-19T08:40:13.095Z,3.27
2018-08-19T08:42:44.082Z,3.00
2018-08-19T08:45:14.424Z,3.07
2018-08-19T08:47:43.691Z,2.90
2018-08-19T08:50:13.530Z,3.60
2018-08-19T08:52:44.566Z,2.83
2018-08-19T08:55:14.246Z,3.40
2018-08-19T08:57:43.390Z,3.57
2018-08-19T09:00:14.119Z,3.63
2018-08-19T09:02:43.262Z,3.57
2018-08-19T09:05:12.918Z,3.05
2018-08-19T09:07:42.126Z,3.30
2018-08-19T09:10:13.496Z,3.00
2018-08-19T09:12:46.851Z,2.90
2018-08-19T09:15:16.117Z,3.70
2018-08-19T09:17:45.258Z,3.80
2018-08-19T09:20:14.414Z,4.43
2018-08-19T09:22:44.361Z,3.97
2018-08-19T09:25:13.532Z,4.60
2018-08-19T09:27:43.086Z,4.50
2018-08-19T09:30:20.786Z,3.85
2018-08-19T09:32:59.969Z,3.53
2018-08-19T09:35:31.466Z,3.30
2018-08-19T09:38:05.838Z,3.57
2018-08-19T09:40:35.715Z,3.12
2018-08-19T09:43:05.495Z,3.58
2018-08-19T09:45:34.650Z,3.85
2018-08-19T09:48:04.634Z,3.70
2018-08-19T09:50:34.630Z,3.65
2018-08-19T09:53:04.022Z,3.33
2018-08-19T09:55:38.434Z,3.27
2018-08-19T09:58:13.382Z,3.47
2018-08-19T10:00:47.757Z,3.83
2018-08-19T10:03:17.003Z,4.17
2018-08-19T10:05:46.197Z,3.60
2018-08-19T10:08:15.363Z,3.72
2018-08-19T10:10:44.537Z,3.30
2018-08-19T10:13:16.013Z,3.20
2018-08-19T10:15:45.152Z,3.60
2018-08-19T10:18:14.302Z,3.80
2018-08-19T10:20:43.454Z,3.50
2018-08-19T10:23:12.758Z,3.63
2018-08-19T10:25:41.977Z,3.60
2018-08-19T10:28:11.131Z,3.40
2018-08-19T10:30:50.426Z,3.40
2018-08-19T10:33:21.513Z,3.90
2018-08-19T10:35:50.697Z,3.00
2018-08-19T10:38:19.839Z,3.72
2018-08-19T10:40:55.595Z,3.67
2018-08-19T10:43:24.727Z,3.43
2018-08-19T10:45:53.870Z,3.00
2018-08-19T10:48:23.006Z,3.22
2018-08-19T10:50:52.147Z,3.00
2018-08-19T10:53:28.482Z,4.00
2018-08-19T10:56:00.169Z,3.30
2018-08-19T10:58:29.393Z,3.33
2018-08-19T11:00:58.507Z,3.27
2018-08-19T11:03:27.654Z,3.10
2018-08-19T11:05:57.066Z,3.30
2018-08-19T11:08:26.206Z,3.30
2018-08-19T11:10:55.346Z,3.20
2018-08-19T11:13:25.294Z,3.43
2018-08-19T11:15:55.471Z,3.57
2018-08-19T11:18:30.946Z,3.37
2018-08-19T11:21:07.143Z,3.07
2018-08-19T11:23:39.262Z,2.97
2018-08-19T11:26:10.466Z,3.57
2018-08-19T11:28:48.256Z,3.30
2018-08-19T11:31:25.382Z,3.40
2018-08-19T11:33:56.372Z,3.30
2018-08-19T11:36:32.098Z,3.70
2018-08-19T11:39:01.322Z,3.57
2018-08-19T11:41:34.090Z,3.80
2018-08-19T11:44:10.319Z,3.40
2018-08-19T11:46:40.522Z,3.65
2018-08-19T11:49:19.245Z,3.60
2018-08-19T11:51:53.838Z,3.70
2018-08-19T11:54:23.810Z,4.00
2018-08-19T11:56:59.671Z,3.80
2018-08-19T11:59:34.028Z,4.08
2018-08-19T12:02:03.241Z,3.80
2018-08-19T12:04:32.370Z,3.50
2018-08-19T12:07:01.521Z,3.40
2018-08-19T12:09:30.679Z,3.60
2018-08-19T12:11:59.791Z,3.73
2018-08-19T12:14:32.242Z,3.70
2018-08-19T12:17:02.403Z,3.90
2018-08-19T12:19:32.470Z,3.80
2018-08-19T12:22:03.430Z,3.83
2018-08-19T12:24:34.904Z,3.73
2018-08-19T12:27:05.141Z,4.03
2018-08-19T12:29:35.463Z,4.23
2018-08-19T12:32:18.750Z,3.90
2018-08-19T12:34:49.990Z,4.00
2018-08-19T12:37:20.391Z,3.70
2018-08-19T12:39:49.818Z,4.13
2018-08-19T12:42:19.019Z,4.07
2018-08-19T12:44:58.255Z,3.67
2018-08-19T12:47:28.067Z,3.70
2018-08-19T12:50:00.333Z,3.72
2018-08-19T12:52:30.709Z,3.90
2018-08-19T12:55:05.074Z,4.08
2018-08-19T12:57:34.798Z,4.10
2018-08-19T13:00:14.695Z,4.10
2018-08-19T13:02:45.004Z,4.10
2018-08-19T13:05:15.201Z,4.20
2018-08-19T13:07:44.497Z,3.93
2018-08-19T13:10:13.638Z,3.73
2018-08-19T13:12:49.960Z,3.83
2018-08-19T13:15:19.111Z,4.20
2018-08-19T13:17:48.271Z,3.80
2018-08-19T13:27:34.626Z,3.63
2018-08-19T13:30:03.762Z,3.87
2018-08-19T13:32:32.919Z,4.17
2018-08-19T13:35:02.056Z,3.95
2018-08-19T13:37:31.198Z,3.97
2018-08-19T13:40:00.334Z,4.10
2018-08-19T13:42:29.474Z,4.05
2018-08-19T13:45:03.955Z,4.53
2018-08-19T13:47:33.091Z,4.28
2018-08-19T13:50:02.230Z,4.30
2018-08-19T13:52:31.372Z,4.00
2018-08-19T13:55:02.537Z,4.30
2018-08-19T13:57:31.690Z,4.30
2018-08-19T14:00:00.829Z,4.07
2018-08-19T14:02:29.967Z,3.90
2018-08-19T14:04:59.114Z,4.47
2018-08-19T14:07:28.274Z,4.30
2018-08-19T14:09:57.419Z,4.30
2018-08-19T14:12:26.570Z,4.03
2018-08-19T14:14:55.722Z,3.87
2018-08-19T14:17:24.862Z,3.87
2018-08-19T14:19:54.026Z,4.17
2018-08-19T14:22:23.167Z,4.20
2018-08-19T14:24:52.306Z,3.88
2018-08-19T14:27:28.262Z,3.87
2018-08-19T14:29:57.428Z,4.17
2018-08-19T14:32:36.170Z,3.73
2018-08-19T14:35:05.711Z,4.03
2018-08-19T14:37:34.858Z,4.05
2018-08-19T14:40:04.844Z,3.60
2018-08-19T14:42:33.973Z,4.37
2018-08-19T14:45:03.102Z,4.07
2018-08-19T14:47:32.243Z,3.73
2018-08-19T14:50:01.438Z,3.60
2018-08-19T14:52:30.583Z,3.70
2018-08-19T14:54:59.730Z,3.73
2018-08-19T14:57:28.875Z,4.20
2018-08-19T14:59:58.019Z,4.28
2018-08-19T15:02:27.153Z,3.90
2018-08-19T15:04:56.315Z,4.17
2018-08-19T15:07:25.495Z,3.90
2018-08-19T15:09:55.096Z,3.63
2018-08-19T15:12:25.972Z,3.87
2018-08-19T15:14:59.365Z,5.33
2018-08-19T15:17:28.489Z,5.13
2018-08-19T15:19:57.824Z,4.50
2018-08-19T15:22:26.818Z,4.60
2018-08-19T15:24:55.987Z,7.40
2018-08-19T15:27:25.130Z,4.50
2018-08-19T15:29:55.002Z,4.10
2018-08-19T15:32:25.249Z,3.77
2018-08-19T15:34:54.190Z,4.00
2018-08-19T15:37:23.319Z,4.23
2018-08-19T15:39:52.503Z,4.12
2018-08-19T15:42:21.656Z,4.00
2018-08-19T15:44:50.797Z,3.97
2018-08-19T15:47:19.992Z,4.63
2018-08-19T15:50:07.925Z,3.92
2018-08-19T15:52:37.066Z,4.23
2018-08-19T15:55:06.295Z,5.00
2018-08-19T15:57:35.427Z,5.13
2018-08-19T16:00:04.588Z,4.60
2018-08-19T16:02:33.714Z,3.87
2018-08-19T16:05:06.750Z,4.20
2018-08-19T16:07:35.987Z,3.87
2018-08-19T16:10:05.582Z,5.15
2018-08-19T16:12:36.358Z,3.27
2018-08-19T16:15:08.610Z,3.77
2018-08-19T16:17:37.738Z,3.80
2018-08-19T16:20:07.174Z,3.90
2018-08-19T16:22:36.307Z,3.40
2018-08-19T16:25:05.483Z,3.40
2018-08-19T16:27:34.615Z,4.10
2018-08-19T16:30:03.826Z,3.50
2018-08-19T16:32:32.974Z,4.00
2018-08-19T16:35:02.185Z,3.73
2018-08-19T16:37:31.345Z,4.30
2018-08-19T16:40:00.635Z,3.70
2018-08-19T16:42:29.766Z,3.35
2018-08-19T16:44:58.931Z,3.30
2018-08-19T16:47:28.066Z,3.77
2018-08-19T16:49:57.232Z,3.98
2018-08-19T16:52:26.360Z,3.83
2018-08-19T16:54:55.494Z,4.20
2018-08-19T16:57:24.738Z,3.63
2018-08-19T16:59:53.783Z,4.07
2018-08-19T17:02:23.123Z,4.00
2018-08-19T17:04:53.134Z,4.67
2018-08-19T17:07:23.274Z,3.90
2018-08-19T17:09:53.425Z,3.60
2018-08-19T17:12:23.591Z,3.83
2018-08-19T17:14:53.611Z,3.80
2018-08-19T17:17:23.684Z,4.00
2018-08-19T17:19:53.851Z,4.08
2018-08-19T17:22:23.961Z,4.00
2018-08-19T17:24:53.978Z,4.03
2018-08-19T17:27:25.538Z,4.30
2018-08-19T17:29:54.666Z,4.00
2018-08-19T17:32:24.420Z,3.90
2018-08-19T17:34:54.363Z,4.17
2018-08-19T17:37:24.587Z,3.72
2018-08-19T17:39:54.941Z,3.93
2018-08-19T17:42:24.734Z,4.00
2018-08-19T17:44:54.835Z,4.25
2018-08-19T17:47:24.971Z,4.10
2018-08-19T17:49:55.070Z,4.42
2018-08-19T17:52:25.148Z,3.83
2018-08-19T17:54:55.210Z,4.00
2018-08-19T17:57:25.339Z,4.05
2018-08-19T17:59:55.456Z,5.03
2018-08-19T18:02:25.582Z,4.20
2018-08-19T18:04:55.690Z,4.42
2018-08-19T18:07:28.529Z,4.65
2018-08-19T18:09:58.903Z,4.63
2018-08-19T18:12:28.058Z,5.10
2018-08-19T18:14:57.304Z,4.40
2018-08-19T18:17:26.358Z,4.60
2018-08-19T18:19:56.345Z,3.90
2018-08-19T18:22:26.341Z,4.03
2018-08-19T18:25:01.450Z,4.00
2018-08-19T18:27:30.590Z,3.77
2018-08-19T18:29:59.744Z,3.97
2018-08-19T18:32:28.894Z,4.50
2018-08-19T18:34:58.030Z,3.70
2018-08-19T18:37:27.185Z,3.87
2018-08-19T18:39:56.671Z,3.83
2018-08-19T18:42:38.300Z,4.00
2018-08-19T18:45:10.377Z,3.70
2018-08-19T18:47:49.769Z,4.60
2018-08-19T18:50:21.973Z,3.83
2018-08-19T18:52:51.315Z,3.50
2018-08-19T18:55:20.678Z,3.67
2018-08-19T18:57:54.058Z,3.70
2018-08-19T19:00:25.562Z,3.87
2018-08-19T19:02:56.858Z,3.60
2018-08-19T19:05:37.941Z,3.90
2018-08-19T19:08:12.455Z,3.63
2018-08-19T19:10:56.043Z,3.77
2018-08-19T19:13:26.042Z,3.57
2018-08-19T19:15:55.182Z,3.80
2018-08-19T19:18:24.328Z,3.40
2018-08-19T19:21:00.310Z,3.73
2018-08-19T19:23:45.947Z,3.70
2018-08-19T19:26:15.132Z,4.00
2018-08-19T19:28:44.236Z,3.70
2018-08-19T19:31:14.778Z,3.77
2018-08-19T19:33:43.918Z,3.73
2018-08-19T19:36:19.834Z,3.90
2018-08-19T19:38:54.065Z,4.20
2018-08-19T19:41:26.981Z,4.37
2018-08-19T19:43:56.109Z,4.00
2018-08-19T19:46:25.440Z,4.37
2018-08-19T19:48:54.583Z,4.20
2018-08-19T19:51:23.731Z,4.07
2018-08-19T19:53:52.866Z,4.17
2018-08-19T19:56:22.007Z,3.90
2018-08-19T19:58:51.155Z,3.97
2018-08-19T20:01:20.307Z,4.40
2018-08-19T20:03:54.626Z,4.13
2018-08-19T20:06:24.245Z,4.23
2018-08-19T20:08:53.474Z,4.43
2018-08-19T20:11:28.134Z,4.60
2018-08-19T20:14:01.581Z,4.10
2018-08-19T20:16:30.727Z,4.10
2018-08-19T20:18:59.862Z,3.97
2018-08-19T20:21:30.137Z,4.10
2018-08-19T20:23:59.886Z,4.47
2018-08-19T20:26:29.050Z,4.15
2018-08-19T20:29:00.417Z,3.90
2018-08-19T20:31:29.577Z,4.00
2018-08-19T20:33:59.344Z,3.80
2018-08-19T20:36:29.329Z,3.75
2018-08-19T20:38:59.409Z,4.12
2018-08-19T20:41:29.438Z,3.65
2018-08-19T20:43:59.546Z,4.20
2018-08-19T20:46:29.579Z,3.83
2018-08-19T20:48:59.638Z,3.83
2018-08-19T20:51:29.706Z,3.80
2018-08-19T20:53:59.823Z,3.90
2018-08-19T20:56:29.858Z,3.90
2018-08-19T20:58:59.955Z,3.67
2018-08-19T21:01:29.986Z,3.90
2018-08-19T21:04:00.102Z,4.08
2018-08-19T21:06:30.118Z,3.80
2018-08-19T21:09:00.127Z,4.20
2018-08-19T21:11:30.267Z,3.48
2018-08-19T21:14:00.218Z,3.70
2018-08-19T21:16:31.191Z,4.20
2018-08-19T21:19:01.698Z,3.90
2018-08-19T21:21:30.846Z,3.57
2018-08-19T21:24:00.542Z,4.03
2018-08-19T21:26:30.578Z,4.05
2018-08-19T21:29:02.910Z,4.03
2018-08-19T21:31:33.113Z,4.30
2018-08-19T21:34:02.251Z,4.13
2018-08-19T21:36:31.394Z,3.97
2018-08-19T21:39:00.969Z,4.45
2018-08-19T21:41:49.083Z,4.77
2018-08-19T21:44:19.067Z,4.67
2018-08-19T21:46:48.214Z,4.27
2018-08-19T21:49:17.386Z,4.53
2018-08-19T21:51:46.530Z,4.17
2018-08-19T21:54:16.679Z,4.33
2018-08-19T21:56:45.826Z,4.50
2018-08-19T21:59:22.908Z,5.00
2018-08-19T22:01:56.055Z,4.83
2018-08-19T22:04:25.278Z,4.93
2018-08-19T22:06:54.426Z,4.70
2018-08-19T22:09:38.290Z,4.62
2018-08-19T22:12:08.178Z,4.87
2018-08-19T22:14:37.314Z,4.40
2018-08-19T22:17:09.261Z,4.47
2018-08-19T22:19:38.660Z,5.23
2018-08-19T22:22:08.182Z,4.57
2018-08-19T22:24:37.403Z,4.73
2018-08-19T22:27:11.780Z,4.53
2018-08-19T22:29:40.919Z,5.15
2018-08-19T22:32:10.074Z,4.27
2018-08-19T22:34:39.218Z,4.40
2018-08-19T22:37:08.383Z,4.50
2018-08-19T22:39:37.510Z,4.23
2018-08-19T22:42:06.650Z,5.15
2018-08-19T22:44:35.794Z,4.10
2018-08-19T22:47:04.962Z,4.40
2018-08-19T22:49:34.108Z,5.30
2018-08-19T22:52:19.891Z,4.17
2018-08-19T22:54:51.478Z,4.07
2018-08-19T22:57:20.618Z,4.60
2018-08-19T22:59:49.755Z,4.03
2018-08-19T23:02:18.919Z,4.40
2018-08-19T23:04:48.048Z,4.37
2018-08-19T23:07:17.198Z,4.67
2018-08-19T23:09:46.334Z,4.28
2018-08-19T23:12:15.489Z,4.30
2018-08-19T23:15:57.843Z,4.60
2018-08-19T23:18:27.809Z,4.60
2018-08-19T23:20:57.302Z,4.23
2018-08-19T23:23:26.454Z,4.80
2018-08-19T23:25:55.602Z,4.33
2018-08-19T23:28:25.322Z,5.67
2018-08-19T23:30:54.551Z,4.33
2018-08-19T23:33:23.706Z,4.50
2018-08-19T23:35:52.847Z,4.80
2018-08-19T23:38:22.006Z,4.12
2018-08-19T23:40:51.149Z,4.57
2018-08-19T23:43:20.310Z,4.40
2018-08-19T23:45:49.433Z,4.07
2018-08-19T23:48:18.589Z,4.20
2018-08-19T23:50:47.722Z,4.60
2018-08-19T23:53:16.900Z,4.70
2018-08-19T23:55:46.043Z,5.17
2018-08-19T23:58:15.193Z,4.40
